Time;durP1;ratioP1;P1;durP2;ratioP2;P2;SDS_P1;SDS_P2;PMS_P1;PMS_P2;Temp;Humidity;BMP_temperature;BMP_pressure;BME280_temperature;BME280_humidity;BME280_pressure;Samples;Min_cycle;Max_cycle;Signal;HPM_P1;HPM_P2
2021/01/05 00:01:50;;;;;;;21.85;15.55;;;3.50;99.90;;;;;;5001347;28;20233;-77
2021/01/05 00:04:18;;;;;;;22.23;15.07;;;3.50;99.90;;;;;;5023979;28;20206;-76
2021/01/05 00:06:44;;;;;;;19.25;14.10;;;3.60;99.90;;;;;;4974434;28;20257;-76
2021/01/05 00:09:10;;;;;;;20.67;13.95;;;3.50;99.90;;;;;;5004889;28;20214;-77
2021/01/05 00:11:58;;;;;;;22.38;15.40;;;3.60;99.90;;;;;;4990231;28;20182;-78
2021/01/05 00:14:27;;;;;;;19.73;13.43;;;3.60;99.90;;;;;;4989012;28;20583;-78
2021/01/05 00:16:53;;;;;;;21.85;15.98;;;3.40;99.90;;;;;;5004242;28;20555;-76
2021/01/05 00:19:23;;;;;;;20.42;14.45;;;3.40;99.90;;;;;;4984112;28;20197;-77
2021/01/05 00:21:54;;;;;;;23.33;15.90;;;3.50;99.90;;;;;;5030366;28;20218;-76
2021/01/05 00:24:20;;;;;;;22.02;13.90;;;3.50;99.90;;;;;;5030797;28;20214;-77
2021/01/05 00:26:47;;;;;;;18.90;13.57;;;3.40;99.90;;;;;;4998576;28;20205;-77
2021/01/05 00:29:15;;;;;;;20.70;14.85;;;3.30;99.90;;;;;;4998085;28;20476;-76
2021/01/05 00:31:46;;;;;;;22.20;15.57;;;3.40;99.90;;;;;;4997902;28;20178;-76
2021/01/05 00:34:15;;;;;;;22.10;14.88;;;3.40;99.90;;;;;;4982390;28;20190;-76
2021/01/05 00:36:42;;;;;;;22.08;14.48;;;3.30;99.90;;;;;;4997791;28;20217;-76
2021/01/05 00:39:08;;;;;;;20.98;14.43;;;3.40;99.90;;;;;;4998062;28;20179;-76
2021/01/05 00:41:34;;;;;;;20.65;14.35;;;3.30;99.90;;;;;;4999469;28;20206;-76
2021/01/05 00:44:03;;;;;;;21.70;14.57;;;3.30;99.90;;;;;;4983051;28;20269;-77
2021/01/05 00:46:31;;;;;;;19.58;13.48;;;3.40;99.90;;;;;;4982630;28;20210;-76
2021/01/05 00:49:02;;;;;;;21.50;14.93;;;3.50;99.90;;;;;;4999320;28;20581;-77
2021/01/05 00:51:28;;;;;;;19.08;13.43;;;3.40;99.90;;;;;;4983021;28;20179;-77
2021/01/05 00:53:57;;;;;;;23.13;14.40;;;3.30;99.90;;;;;;4966223;28;20202;-77
2021/01/05 00:56:22;;;;;;;20.77;14.57;;;3.20;99.90;;;;;;4981995;28;20683;-77
2021/01/05 00:58:49;;;;;;;23.48;14.50;;;3.40;99.90;;;;;;4998720;28;20202;-76
2021/01/05 01:01:15;;;;;;;19.15;13.70;;;3.40;99.90;;;;;;5000174;28;20198;-77
2021/01/05 01:03:42;;;;;;;19.10;13.52;;;3.70;99.90;;;;;;4998436;28;20182;-76
2021/01/05 01:06:08;;;;;;;19.30;13.73;;;3.60;99.90;;;;;;4965990;28;20321;-77
2021/01/05 01:08:34;;;;;;;20.83;13.82;;;3.30;99.90;;;;;;4981538;28;20171;-77
2021/01/05 01:11:01;;;;;;;18.50;13.40;;;3.40;99.90;;;;;;4982725;28;20171;-77
2021/01/05 01:13:30;;;;;;;21.35;13.50;;;3.40;99.90;;;;;;4981817;28;20181;-77
2021/01/05 01:15:57;;;;;;;18.70;13.07;;;3.60;99.90;;;;;;4998327;28;20650;-77
2021/01/05 01:18:24;;;;;;;19.83;13.55;;;3.40;99.90;;;;;;4997648;28;20214;-76
2021/01/05 01:20:50;;;;;;;21.02;14.60;;;3.50;99.90;;;;;;4997412;28;20191;-77
2021/01/05 01:23:24;;;;;;;18.42;12.98;;;3.40;99.90;;;;;;4981518;28;20224;-76
2021/01/05 01:25:56;;;;;;;19.65;13.70;;;3.40;99.90;;;;;;4997684;28;20224;-77
2021/01/05 01:28:24;;;;;;;19.52;13.52;;;3.40;99.90;;;;;;4998212;28;20209;-76
2021/01/05 01:30:50;;;;;;;20.73;13.65;;;3.40;99.90;;;;;;4998391;28;20218;-77
2021/01/05 01:33:22;;;;;;;21.30;13.82;;;3.40;99.90;;;;;;4998545;28;20659;-77
2021/01/05 01:35:49;;;;;;;18.63;12.65;;;3.60;99.90;;;;;;4981610;28;20187;-76
2021/01/05 01:38:18;;;;;;;18.40;12.90;;;3.30;99.90;;;;;;4997864;28;20206;-76
2021/01/05 01:40:52;;;;;;;20.08;13.38;;;3.50;99.90;;;;;;4997219;28;20298;-76
2021/01/05 01:43:29;;;;;;;20.63;13.50;;;3.50;99.90;;;;;;4997804;28;20579;-76
2021/01/05 01:46:00;;;;;;;24.63;14.50;;;3.30;99.90;;;;;;4982377;28;20221;-76
2021/01/05 01:48:34;;;;;;;19.90;12.75;;;3.30;99.90;;;;;;4981820;28;20202;-76
2021/01/05 01:51:03;;;;;;;19.52;13.50;;;3.10;99.90;;;;;;5000470;28;20206;-77
2021/01/05 01:53:50;;;;;;;21.08;13.43;;;3.30;99.90;;;;;;5016997;28;20177;-77
2021/01/05 01:56:46;;;;;;;21.27;13.90;;;3.30;99.90;;;;;;5001226;28;20201;-77
2021/01/05 01:59:49;;;;;;;21.23;14.13;;;3.20;99.90;;;;;;5002363;28;20172;-77
2021/01/05 02:03:05;;;;;;;19.95;14.10;;;3.40;99.90;;;;;;5001702;28;20182;-77
2021/01/05 02:06:05;;;;;;;17.83;12.57;;;3.50;99.90;;;;;;5016919;28;20202;-77
2021/01/05 02:08:52;;;;;;;18.67;12.88;;;3.20;99.90;;;;;;4984317;28;20210;-76
2021/01/05 02:12:15;;;;;;;18.42;12.10;;;3.40;99.90;;;;;;4984722;28;20189;-77
2021/01/05 02:14:59;;;;;;;19.73;13.25;;;3.10;99.90;;;;;;4979724;28;20175;-77
2021/01/05 02:17:59;;;;;;;17.65;11.43;;;3.20;99.90;;;;;;4977000;28;20213;-77
2021/01/05 02:20:57;;;;;;;17.48;12.25;;;3.50;99.90;;;;;;4976604;28;20223;-76
2021/01/05 02:23:53;;;;;;;15.77;11.65;;;3.40;99.90;;;;;;4975877;28;20233;-77
2021/01/05 02:26:45;;;;;;;18.45;12.77;;;3.30;99.90;;;;;;4977558;28;20176;-76
2021/01/05 02:29:28;;;;;;;18.02;12.45;;;3.30;99.90;;;;;;4961105;28;20172;-76
2021/01/05 02:32:33;;;;;;;17.70;12.75;;;3.40;99.90;;;;;;4990356;28;20178;-77
2021/01/05 02:35:39;;;;;;;19.65;13.50;;;3.50;99.90;;;;;;4964956;28;20185;-76
2021/01/05 02:38:46;;;;;;;20.38;13.90;;;3.30;99.90;;;;;;4995960;28;20747;-77
2021/01/05 02:41:58;;;;;;;18.05;12.55;;;3.30;99.90;;;;;;4995528;28;20368;-77
2021/01/05 02:45:13;;;;;;;17.02;12.35;;;3.30;99.90;;;;;;4996442;28;20261;-77
2021/01/05 02:48:39;;;;;;;18.35;13.10;;;3.50;99.90;;;;;;4997101;28;20597;-76
2021/01/05 02:51:46;;;;;;;18.88;12.73;;;3.20;99.90;;;;;;4993389;28;20679;-75
2021/01/05 02:54:50;;;;;;;19.98;13.93;;;3.30;99.90;;;;;;4984457;28;20548;-75
2021/01/05 02:57:40;;;;;;;18.38;12.98;;;3.30;99.90;;;;;;4993950;28;20803;-75
2021/01/05 03:00:25;;;;;;;17.38;12.30;;;3.30;99.90;;;;;;4993844;28;20235;-75
2021/01/05 03:03:34;;;;;;;17.98;12.25;;;3.20;99.90;;;;;;4994015;28;20627;-75
2021/01/05 03:06:39;;;;;;;19.98;13.02;;;3.20;99.90;;;;;;5020049;28;20194;-75
2021/01/05 03:09:29;;;;;;;18.25;12.55;;;3.30;99.90;;;;;;4993991;28;20178;-75
2021/01/05 03:12:27;;;;;;;18.58;12.77;;;3.50;99.90;;;;;;4992552;28;20185;-75
2021/01/05 03:15:45;;;;;;;19.75;12.88;;;3.30;99.90;;;;;;4993913;28;20193;-75
2021/01/05 03:18:55;;;;;;;20.45;13.75;;;3.40;99.90;;;;;;5020379;28;20209;-75
2021/01/05 03:21:46;;;;;;;20.02;13.23;;;3.40;99.90;;;;;;4974928;28;20298;-75
2021/01/05 03:24:36;;;;;;;21.83;15.25;;;3.30;99.90;;;;;;4981247;28;20305;-75
2021/01/05 03:27:29;;;;;;;19.80;14.07;;;3.40;99.90;;;;;;4985390;28;20763;-75
2021/01/05 03:30:23;;;;;;;20.55;13.02;;;3.30;99.90;;;;;;4986564;28;20206;-75
2021/01/05 03:33:11;;;;;;;18.95;13.57;;;3.40;99.90;;;;;;4973137;28;20210;-75
2021/01/05 03:35:56;;;;;;;19.25;13.57;;;3.30;99.90;;;;;;4973127;28;20535;-75
2021/01/05 03:38:40;;;;;;;21.15;14.13;;;3.30;99.90;;;;;;4990655;28;20178;-74
2021/01/05 03:41:26;;;;;;;22.73;15.85;;;3.40;99.90;;;;;;4973776;28;20207;-75
2021/01/05 03:44:13;;;;;;;20.23;14.10;;;3.30;99.90;;;;;;4985290;28;20187;-75
2021/01/05 03:46:58;;;;;;;21.70;13.95;;;3.30;99.90;;;;;;4993258;28;20253;-75
2021/01/05 03:49:43;;;;;;;23.58;15.60;;;3.40;99.90;;;;;;4992392;28;20190;-75
2021/01/05 03:52:40;;;;;;;21.73;14.55;;;3.30;99.90;;;;;;4990999;28;20187;-75
2021/01/05 03:55:25;;;;;;;27.75;16.65;;;3.40;99.90;;;;;;4992367;28;20644;-75
2021/01/05 03:58:09;;;;;;;22.75;14.80;;;3.40;99.90;;;;;;4993114;28;20582;-76
2021/01/05 04:00:54;;;;;;;21.00;14.13;;;3.40;99.90;;;;;;4991985;28;20217;-76
2021/01/05 04:03:21;;;;;;;24.37;15.17;;;3.40;99.90;;;;;;4988621;28;20175;-75
2021/01/05 04:05:49;;;;;;;24.15;14.70;;;3.50;99.90;;;;;;4973791;28;20430;-76
2021/01/05 04:08:15;;;;;;;22.27;15.05;;;3.30;99.90;;;;;;4973639;28;20217;-75
2021/01/05 04:10:41;;;;;;;24.20;15.52;;;3.40;99.90;;;;;;4956890;28;20215;-75
2021/01/05 04:13:07;;;;;;;24.47;15.50;;;3.60;99.90;;;;;;4975102;28;20633;-75
2021/01/05 04:15:33;;;;;;;20.60;13.80;;;3.40;99.90;;;;;;4984150;28;20453;-75
2021/01/05 04:18:00;;;;;;;22.00;14.20;;;3.40;99.90;;;;;;4974354;28;20211;-75
2021/01/05 04:20:28;;;;;;;21.58;15.63;;;3.40;99.90;;;;;;4980967;28;20986;-75
2021/01/05 04:23:00;;;;;;;22.08;14.52;;;3.30;99.90;;;;;;4991368;28;20272;-75
2021/01/05 04:25:28;;;;;;;24.63;15.70;;;3.40;99.90;;;;;;5005324;28;20190;-75
2021/01/05 04:27:55;;;;;;;20.55;14.25;;;3.40;99.90;;;;;;4990629;28;20203;-75
2021/01/05 04:30:26;;;;;;;21.10;14.80;;;3.50;99.90;;;;;;4975487;28;20198;-75
2021/01/05 04:32:54;;;;;;;22.08;14.07;;;3.50;99.90;;;;;;4991718;28;20178;-75
2021/01/05 04:35:23;;;;;;;23.30;14.75;;;3.40;99.90;;;;;;4991617;28;20549;-75
2021/01/05 04:37:52;;;;;;;22.10;15.25;;;3.50;99.90;;;;;;4992834;28;20210;-75
2021/01/05 04:40:27;;;;;;;23.00;14.25;;;3.50;99.90;;;;;;4991517;28;20218;-75
2021/01/05 04:43:26;;;;;;;22.98;14.77;;;3.50;99.90;;;;;;4991792;28;20175;-75
2021/01/05 04:46:13;;;;;;;21.35;15.00;;;3.50;99.90;;;;;;4992917;28;20187;-75
2021/01/05 04:48:41;;;;;;;26.40;15.50;;;3.50;99.90;;;;;;4972681;28;20221;-75
2021/01/05 04:51:21;;;;;;;23.20;14.07;;;3.60;99.90;;;;;;4978871;28;20190;-75
2021/01/05 04:54:15;;;;;;;20.52;13.65;;;3.70;99.90;;;;;;4996333;28;20179;-75
2021/01/05 04:57:09;;;;;;;21.08;13.43;;;3.40;99.90;;;;;;4979369;28;20293;-75
2021/01/05 04:59:59;;;;;;;21.85;14.80;;;3.40;99.90;;;;;;4986222;28;20191;-75
2021/01/05 05:02:28;;;;;;;25.15;14.05;;;3.30;99.90;;;;;;4962920;28;20578;-75
2021/01/05 05:05:23;;;;;;;25.58;15.45;;;3.50;99.90;;;;;;4996010;28;20198;-75
2021/01/05 05:08:23;;;;;;;18.13;13.00;;;3.40;99.90;;;;;;4975449;28;20210;-75
2021/01/05 05:10:56;;;;;;;19.60;12.90;;;3.40;99.90;;;;;;4975794;28;20187;-75
2021/01/05 05:14:02;;;;;;;18.88;12.40;;;3.40;99.90;;;;;;4979080;28;20618;-75
2021/01/05 05:16:52;;;;;;;19.38;12.05;;;3.60;99.90;;;;;;4990429;28;20178;-75
2021/01/05 05:19:37;;;;;;;20.52;13.30;;;3.30;99.90;;;;;;4971444;28;20186;-75
2021/01/05 05:22:12;;;;;;;24.08;14.20;;;3.40;99.90;;;;;;4976323;28;20222;-74
2021/01/05 05:24:54;;;;;;;19.00;12.95;;;3.40;99.90;;;;;;4975104;28;20226;-75
2021/01/05 05:27:26;;;;;;;19.15;11.95;;;3.60;99.90;;;;;;4976295;28;20209;-75
2021/01/05 05:29:57;;;;;;;17.80;12.82;;;3.60;99.90;;;;;;4974969;28;20184;-75
2021/01/05 05:32:26;;;;;;;23.13;13.85;;;3.30;99.90;;;;;;4987146;28;20209;-75
2021/01/05 05:35:18;;;;;;;21.85;14.05;;;3.50;99.90;;;;;;4994312;28;20206;-75
2021/01/05 05:38:07;;;;;;;23.45;14.13;;;3.40;99.90;;;;;;4994962;28;20210;-75
2021/01/05 05:40:38;;;;;;;18.75;13.02;;;3.30;99.90;;;;;;4992444;28;20551;-75
2021/01/05 05:43:17;;;;;;;21.02;12.75;;;3.30;99.90;;;;;;4958898;28;20183;-75
2021/01/05 05:45:47;;;;;;;19.48;12.63;;;3.30;99.90;;;;;;4976178;28;20167;-75
2021/01/05 05:48:20;;;;;;;21.85;13.20;;;3.20;99.90;;;;;;4974840;28;20214;-75
2021/01/05 05:51:13;;;;;;;21.02;12.68;;;3.40;99.90;;;;;;4986310;28;20240;-75
2021/01/05 05:53:57;;;;;;;21.23;13.00;;;3.40;99.90;;;;;;4989676;28;20189;-75
2021/01/05 05:56:48;;;;;;;18.08;12.07;;;3.20;99.90;;;;;;4995583;28;20704;-75
2021/01/05 05:59:16;;;;;;;21.15;13.32;;;3.30;99.90;;;;;;4994598;28;20264;-75
2021/01/05 06:01:43;;;;;;;18.67;12.80;;;3.40;99.90;;;;;;4961016;28;20349;-75
2021/01/05 06:04:09;;;;;;;18.20;11.75;;;3.50;99.90;;;;;;4995247;28;20252;-75
2021/01/05 06:06:38;;;;;;;19.98;13.40;;;3.40;99.90;;;;;;4978098;28;20205;-75
2021/01/05 06:09:04;;;;;;;20.77;12.30;;;3.40;99.90;;;;;;4994183;28;20178;-75
2021/01/05 06:11:34;;;;;;;20.55;12.80;;;3.40;99.90;;;;;;4994728;28;20245;-75
2021/01/05 06:14:01;;;;;;;21.35;12.80;;;3.60;99.90;;;;;;4978083;28;20249;-75
2021/01/05 06:16:33;;;;;;;22.75;13.85;;;3.40;99.90;;;;;;4994753;28;20196;-75
2021/01/05 06:19:00;;;;;;;20.33;13.68;;;3.40;99.90;;;;;;4993012;28;20718;-75
2021/01/05 06:21:28;;;;;;;21.63;13.45;;;3.40;99.90;;;;;;4977848;28;20620;-76
2021/01/05 06:23:54;;;;;;;20.90;12.48;;;3.50;99.90;;;;;;4974307;28;20867;-75
2021/01/05 06:26:23;;;;;;;24.35;13.65;;;3.40;99.90;;;;;;4975096;28;20234;-75
2021/01/05 06:28:50;;;;;;;22.77;14.00;;;3.40;99.90;;;;;;4974411;28;20637;-76
2021/01/05 06:31:16;;;;;;;23.48;14.43;;;3.50;99.90;;;;;;4990019;28;20434;-75
2021/01/05 06:33:42;;;;;;;19.38;12.50;;;3.40;99.90;;;;;;4975215;28;20183;-75
2021/01/05 06:36:08;;;;;;;17.20;12.38;;;3.70;99.90;;;;;;4976656;28;20269;-75
2021/01/05 06:38:34;;;;;;;24.10;14.15;;;3.40;99.90;;;;;;4993125;28;20210;-75
2021/01/05 06:41:04;;;;;;;19.42;12.85;;;3.30;99.90;;;;;;4993712;28;20753;-75
2021/01/05 06:43:31;;;;;;;21.52;13.60;;;3.40;99.90;;;;;;4977186;28;20183;-75
2021/01/05 06:46:03;;;;;;;18.60;12.30;;;3.60;99.90;;;;;;4974961;28;20179;-75
2021/01/05 06:48:29;;;;;;;20.58;12.43;;;3.60;99.90;;;;;;4991866;28;20203;-75
2021/01/05 06:50:57;;;;;;;21.05;13.57;;;3.40;99.90;;;;;;4988809;28;20195;-75
2021/01/05 06:53:23;;;;;;;21.63;12.77;;;3.50;99.90;;;;;;4973941;28;20556;-75
2021/01/05 06:55:49;;;;;;;20.40;13.57;;;3.50;99.90;;;;;;4973823;28;20195;-75
2021/01/05 06:58:17;;;;;;;19.27;12.50;;;3.50;99.90;;;;;;4973692;28;20237;-75
2021/01/05 07:00:43;;;;;;;23.13;14.50;;;3.60;99.90;;;;;;4973656;28;20466;-75
2021/01/05 07:03:09;;;;;;;20.65;13.90;;;3.60;99.90;;;;;;4973710;28;20237;-75
2021/01/05 07:05:35;;;;;;;21.77;13.82;;;3.40;99.90;;;;;;4957597;28;20175;-75
2021/01/05 07:08:04;;;;;;;23.70;14.60;;;3.70;99.90;;;;;;4975024;28;20201;-75
2021/01/05 07:10:30;;;;;;;22.67;13.40;;;3.60;99.90;;;;;;5005928;28;20186;-75
2021/01/05 07:12:56;;;;;;;25.83;14.10;;;3.60;99.90;;;;;;4989646;28;20186;-75
2021/01/05 07:15:22;;;;;;;21.15;13.85;;;3.40;99.90;;;;;;4982229;28;20460;-75
2021/01/05 07:17:48;;;;;;;21.38;13.32;;;3.50;99.90;;;;;;4991826;28;20202;-75
2021/01/05 07:20:15;;;;;;;23.83;13.93;;;3.50;99.90;;;;;;4993593;28;20197;-75
2021/01/05 07:22:46;;;;;;;22.10;13.63;;;3.50;99.90;;;;;;4992653;28;20662;-75
2021/01/05 07:25:15;;;;;;;17.45;13.10;;;3.60;99.90;;;;;;4992537;28;20249;-75
2021/01/05 07:27:41;;;;;;;26.77;16.48;;;3.60;99.90;;;;;;4992613;28;20213;-75
2021/01/05 07:30:08;;;;;;;21.15;13.85;;;3.60;99.90;;;;;;4986411;28;20204;-75
2021/01/05 07:32:38;;;;;;;24.63;13.73;;;3.80;99.90;;;;;;4981896;28;20182;-75
2021/01/05 07:35:09;;;;;;;23.40;14.27;;;3.60;99.90;;;;;;4992007;28;20205;-75
2021/01/05 07:37:39;;;;;;;21.63;13.50;;;3.60;99.90;;;;;;4993815;28;20203;-75
2021/01/05 07:40:06;;;;;;;20.58;13.68;;;3.80;99.90;;;;;;4981679;28;20190;-74
2021/01/05 07:42:33;;;;;;;23.73;14.57;;;3.50;99.90;;;;;;4981485;28;20266;-75
2021/01/05 07:45:04;;;;;;;20.38;12.98;;;3.50;99.90;;;;;;4993273;28;20599;-75
2021/01/05 07:47:35;;;;;;;21.27;14.02;;;3.80;99.90;;;;;;4990721;28;20293;-75
2021/01/05 07:50:04;;;;;;;19.75;14.07;;;3.70;99.90;;;;;;4988920;28;20289;-75
2021/01/05 07:52:41;;;;;;;22.90;14.75;;;3.90;99.90;;;;;;4973799;28;20187;-75
2021/01/05 07:55:09;;;;;;;18.45;13.35;;;3.80;99.90;;;;;;4959084;28;20171;-75
2021/01/05 07:57:35;;;;;;;22.65;15.18;;;3.60;99.90;;;;;;4993227;28;20206;-75
2021/01/05 08:00:05;;;;;;;22.38;13.13;;;3.90;99.90;;;;;;4992299;28;20190;-75
2021/01/05 08:02:41;;;;;;;24.25;13.48;;;3.70;99.90;;;;;;4984690;28;20635;-75
2021/01/05 08:05:12;;;;;;;19.80;12.90;;;3.70;99.90;;;;;;4972575;28;20199;-75
2021/01/05 08:07:39;;;;;;;21.35;13.68;;;3.50;99.90;;;;;;4972583;28;20206;-75
2021/01/05 08:10:07;;;;;;;22.20;14.07;;;3.60;99.90;;;;;;4972845;28;20180;-75
2021/01/05 08:12:33;;;;;;;21.05;12.80;;;3.50;99.90;;;;;;5005146;28;20168;-75
2021/01/05 08:15:02;;;;;;;23.10;14.07;;;3.70;99.90;;;;;;4973897;28;20167;-75
2021/01/05 08:17:29;;;;;;;26.45;16.15;;;3.60;99.90;;;;;;4972454;28;20287;-75
2021/01/05 08:19:55;;;;;;;23.38;14.30;;;3.70;99.90;;;;;;4957719;28;20226;-75
2021/01/05 08:22:23;;;;;;;26.05;15.55;;;3.60;99.90;;;;;;5008395;28;20241;-75
2021/01/05 08:24:54;;;;;;;24.05;14.02;;;3.60;99.90;;;;;;5015123;28;20218;-75
2021/01/05 08:27:21;;;;;;;24.35;14.00;;;3.80;99.90;;;;;;5003829;28;20202;-75
2021/01/05 08:29:46;;;;;;;23.50;15.07;;;3.70;99.90;;;;;;4979523;28;20178;-75
2021/01/05 08:32:13;;;;;;;25.13;14.10;;;3.80;99.90;;;;;;4985396;28;20233;-75
2021/01/05 08:34:39;;;;;;;24.10;13.80;;;3.80;99.90;;;;;;4979573;28;20816;-75
2021/01/05 08:37:05;;;;;;;24.15;14.43;;;3.90;99.90;;;;;;5011617;28;20203;-75
2021/01/05 08:39:31;;;;;;;25.85;14.20;;;3.70;99.90;;;;;;4995621;28;20197;-75
2021/01/05 08:41:57;;;;;;;25.30;15.05;;;3.70;99.90;;;;;;4996740;28;20218;-74
2021/01/05 08:44:24;;;;;;;22.52;14.25;;;3.60;99.90;;;;;;4982830;28;20567;-75
2021/01/05 08:46:51;;;;;;;23.92;15.00;;;4.00;99.90;;;;;;4975915;28;20203;-75
2021/01/05 08:49:19;;;;;;;22.10;13.88;;;3.90;99.90;;;;;;4992029;28;20176;-75
2021/01/05 08:51:45;;;;;;;27.40;15.77;;;3.90;99.90;;;;;;4960001;28;20237;-75
2021/01/05 08:54:11;;;;;;;24.15;14.38;;;4.00;99.90;;;;;;4960088;28;20229;-75
2021/01/05 08:56:37;;;;;;;28.40;15.60;;;3.80;99.90;;;;;;4975960;28;20239;-75
2021/01/05 08:59:03;;;;;;;26.33;14.70;;;4.10;99.90;;;;;;4986175;28;20808;-75
2021/01/05 09:01:29;;;;;;;27.50;16.03;;;3.90;99.90;;;;;;4996569;28;20202;-75
2021/01/05 09:03:55;;;;;;;25.05;15.02;;;3.90;99.90;;;;;;4995577;28;20482;-75
2021/01/05 09:06:24;;;;;;;31.13;14.83;;;3.90;99.90;;;;;;4991825;28;20179;-75
2021/01/05 09:08:51;;;;;;;25.48;13.85;;;3.90;99.90;;;;;;4975810;28;20415;-75
2021/01/05 09:11:21;;;;;;;27.13;14.52;;;3.80;99.90;;;;;;4976994;28;20191;-75
2021/01/05 09:13:50;;;;;;;22.60;14.25;;;3.90;99.90;;;;;;4959636;28;20199;-75
2021/01/05 09:16:30;;;;;;;21.95;14.15;;;3.80;99.90;;;;;;4980570;28;20214;-75
2021/01/05 09:18:57;;;;;;;21.77;12.30;;;3.90;99.90;;;;;;4994425;28;20647;-75
2021/01/05 09:21:25;;;;;;;26.08;15.15;;;4.00;99.90;;;;;;4995670;28;20210;-75
2021/01/05 09:23:52;;;;;;;28.90;14.90;;;4.00;99.90;;;;;;4962484;28;20242;-76
2021/01/05 09:26:23;;;;;;;24.33;14.80;;;4.00;99.90;;;;;;4990762;28;20175;-75
2021/01/05 09:28:50;;;;;;;21.35;13.15;;;4.00;99.90;;;;;;4978412;28;20550;-75
2021/01/05 09:31:17;;;;;;;24.55;16.13;;;3.90;99.90;;;;;;4978187;28;20193;-75
2021/01/05 09:33:44;;;;;;;28.85;15.57;;;4.00;99.90;;;;;;5027029;28;20679;-75
2021/01/05 09:36:28;;;;;;;25.25;15.70;;;3.90;99.90;;;;;;4962694;28;20551;-75
2021/01/05 09:38:54;;;;;;;25.50;15.93;;;3.70;99.90;;;;;;5003020;28;20191;-75
2021/01/05 09:41:27;;;;;;;28.25;15.40;;;4.10;99.90;;;;;;4987077;28;20284;-76
2021/01/05 09:43:56;;;;;;;22.83;14.10;;;3.90;99.90;;;;;;5027139;28;20159;-75
2021/01/05 09:46:26;;;;;;;31.45;17.63;;;3.90;99.90;;;;;;4995614;28;20167;-77
2021/01/05 09:48:52;;;;;;;28.05;15.70;;;3.90;99.90;;;;;;4990194;28;20185;-76
2021/01/05 09:51:29;;;;;;;26.73;16.38;;;3.90;99.90;;;;;;4995292;28;20537;-76
2021/01/05 09:53:58;;;;;;;28.52;16.85;;;4.20;99.90;;;;;;4995442;28;20249;-76
2021/01/05 09:56:27;;;;;;;33.47;18.73;;;4.00;99.90;;;;;;4994170;28;20175;-76
2021/01/05 09:58:53;;;;;;;31.33;17.23;;;3.90;99.90;;;;;;4978080;28;20545;-75
2021/01/05 10:01:31;;;;;;;34.13;19.27;;;4.00;99.90;;;;;;4995501;28;20210;-76
2021/01/05 10:04:00;;;;;;;33.20;18.55;;;4.10;99.90;;;;;;4994240;28;20464;-76
2021/01/05 10:06:36;;;;;;;34.83;19.50;;;4.00;99.90;;;;;;5010502;28;20171;-75
2021/01/05 10:09:14;;;;;;;36.85;18.25;;;4.00;99.90;;;;;;4993739;28;20194;-75
2021/01/05 10:11:45;;;;;;;30.70;18.25;;;3.90;99.90;;;;;;4994211;28;20205;-76
2021/01/05 10:14:20;;;;;;;29.92;16.65;;;4.00;99.90;;;;;;4994546;28;20175;-75
2021/01/05 10:16:56;;;;;;;34.22;17.15;;;4.10;99.90;;;;;;4994196;28;20290;-75
2021/01/05 10:19:24;;;;;;;34.47;18.63;;;3.90;99.90;;;;;;4993827;28;20190;-75
2021/01/05 10:21:54;;;;;;;45.13;23.38;;;4.10;99.90;;;;;;4993104;28;20276;-76
2021/01/05 10:24:25;;;;;;;60.33;26.75;;;3.90;99.90;;;;;;4994585;28;20569;-75
2021/01/05 10:26:55;;;;;;;52.10;24.23;;;4.00;99.90;;;;;;4994679;28;20198;-75
2021/01/05 10:29:24;;;;;;;35.83;18.40;;;4.00;99.90;;;;;;4993099;28;20191;-75
2021/01/05 10:31:58;;;;;;;35.92;20.73;;;3.90;99.90;;;;;;4994665;28;20600;-77
2021/01/05 10:34:26;;;;;;;30.35;18.83;;;4.00;99.90;;;;;;4993366;28;20197;-75
2021/01/05 10:36:58;;;;;;;30.90;17.83;;;3.90;99.90;;;;;;4993538;28;20202;-77
2021/01/05 10:39:29;;;;;;;28.85;16.65;;;3.90;99.90;;;;;;4979039;28;20237;-77
2021/01/05 10:41:56;;;;;;;32.47;19.50;;;3.90;99.90;;;;;;4994681;28;20199;-78
2021/01/05 10:44:25;;;;;;;31.20;16.88;;;4.20;99.90;;;;;;4979000;28;20187;-77
2021/01/05 10:47:00;;;;;;;36.08;19.67;;;4.00;99.90;;;;;;4992538;28;20265;-77
2021/01/05 10:49:27;;;;;;;31.10;17.33;;;4.20;99.90;;;;;;4976945;28;20179;-78
2021/01/05 10:51:58;;;;;;;34.45;18.70;;;4.00;99.90;;;;;;5013974;28;20542;-77
2021/01/05 10:54:28;;;;;;;32.42;17.73;;;4.10;99.90;;;;;;4994046;28;20191;-77
2021/01/05 10:57:05;;;;;;;31.00;18.80;;;3.90;99.90;;;;;;4977328;28;20207;-76
2021/01/05 10:59:34;;;;;;;32.38;17.98;;;4.20;99.90;;;;;;4993458;28;20218;-75
2021/01/05 11:02:03;;;;;;;33.15;18.10;;;4.20;99.90;;;;;;5023190;28;20214;-78
2021/01/05 11:04:30;;;;;;;30.25;17.88;;;4.00;99.90;;;;;;4992654;28;20183;-76
2021/01/05 11:07:00;;;;;;;31.65;17.55;;;3.90;99.90;;;;;;4993846;28;20202;-77
2021/01/05 11:09:27;;;;;;;33.90;19.42;;;4.10;99.90;;;;;;4977386;28;20294;-78
2021/01/05 11:11:57;;;;;;;33.80;18.75;;;3.90;99.90;;;;;;4992746;28;20244;-76
2021/01/05 11:14:24;;;;;;;33.30;18.02;;;3.90;99.90;;;;;;4976965;28;20182;-77
2021/01/05 11:16:51;;;;;;;34.20;18.90;;;4.00;99.90;;;;;;4992027;28;20202;-77
2021/01/05 11:19:18;;;;;;;29.75;17.95;;;4.00;99.90;;;;;;4992794;28;20186;-77
2021/01/05 11:22:00;;;;;;;31.30;18.30;;;4.20;99.90;;;;;;4972471;28;20305;-77
2021/01/05 11:24:29;;;;;;;34.30;20.58;;;4.20;99.90;;;;;;4976032;28;20230;-77
2021/01/05 11:26:57;;;;;;;27.95;18.48;;;4.20;99.90;;;;;;4975091;28;20209;-77
2021/01/05 11:29:25;;;;;;;32.70;18.45;;;3.90;99.90;;;;;;4975822;28;20195;-77
2021/01/05 11:31:58;;;;;;;31.30;19.63;;;4.00;99.90;;;;;;4956639;28;20218;-76
2021/01/05 11:34:25;;;;;;;37.55;19.45;;;4.20;99.90;;;;;;4973391;28;20187;-77
2021/01/05 11:36:51;;;;;;;39.05;21.63;;;4.50;99.90;;;;;;4977136;28;20221;-77
2021/01/05 11:39:19;;;;;;;31.35;19.83;;;4.30;99.90;;;;;;5002764;28;20202;-77
2021/01/05 11:41:46;;;;;;;33.35;19.38;;;4.20;99.90;;;;;;4997289;28;20210;-77
2021/01/05 11:44:16;;;;;;;38.35;20.52;;;4.20;99.90;;;;;;4976129;28;20720;-76
2021/01/05 11:46:44;;;;;;;33.40;19.88;;;4.10;99.90;;;;;;4991852;28;20206;-76
2021/01/05 11:49:10;;;;;;;36.15;19.70;;;4.20;99.90;;;;;;4992760;28;20567;-77
2021/01/05 11:51:37;;;;;;;35.25;19.60;;;4.20;99.90;;;;;;4984466;28;20186;-76
2021/01/05 11:54:08;;;;;;;36.40;19.55;;;4.20;99.90;;;;;;4992787;28;20611;-76
2021/01/05 11:56:36;;;;;;;37.08;20.75;;;4.20;99.90;;;;;;4991493;28;20289;-76
2021/01/05 11:59:06;;;;;;;34.67;20.70;;;4.40;99.90;;;;;;4991515;28;20187;-76
2021/01/05 12:01:39;;;;;;;37.22;22.48;;;4.20;99.90;;;;;;4991641;28;20229;-76
2021/01/05 12:04:09;;;;;;;41.55;23.15;;;4.10;99.90;;;;;;4992509;28;20195;-76
2021/01/05 12:06:35;;;;;;;31.38;19.45;;;4.10;99.90;;;;;;4991858;28;20202;-76
2021/01/05 12:09:03;;;;;;;41.53;21.20;;;4.30;99.90;;;;;;4990486;28;20546;-77
2021/01/05 12:11:32;;;;;;;41.63;22.40;;;4.20;99.90;;;;;;4987328;28;20829;-76
2021/01/05 12:14:06;;;;;;;38.47;20.70;;;4.30;99.90;;;;;;4997514;28;20205;-76
2021/01/05 12:16:38;;;;;;;35.67;22.05;;;4.10;99.90;;;;;;4994765;28;20264;-76
2021/01/05 12:19:12;;;;;;;39.33;20.85;;;4.00;99.90;;;;;;5000695;28;20192;-76
2021/01/05 12:21:40;;;;;;;36.35;21.42;;;4.30;99.90;;;;;;4984390;28;20209;-76
2021/01/05 12:24:16;;;;;;;36.25;20.15;;;4.10;99.90;;;;;;4973251;28;20241;-76
2021/01/05 12:26:43;;;;;;;38.08;21.65;;;4.10;99.90;;;;;;4999004;28;20222;-76
2021/01/05 12:29:13;;;;;;;43.15;22.80;;;4.10;99.90;;;;;;4970236;28;20241;-76
2021/01/05 12:31:45;;;;;;;42.53;23.65;;;3.90;99.90;;;;;;5016770;28;20193;-76
2021/01/05 12:34:12;;;;;;;41.35;23.48;;;4.00;99.90;;;;;;4999865;28;20239;-76
2021/01/05 12:36:42;;;;;;;40.60;22.38;;;4.00;99.90;;;;;;4972300;28;20217;-77
2021/01/05 12:39:18;;;;;;;43.00;23.30;;;4.30;99.90;;;;;;5005484;28;20189;-76
2021/01/05 12:41:46;;;;;;;45.58;23.02;;;4.10;99.90;;;;;;4990406;28;20210;-76
2021/01/05 12:44:24;;;;;;;38.75;22.05;;;4.10;99.90;;;;;;4995952;28;20194;-76
2021/01/05 12:46:54;;;;;;;46.78;22.88;;;4.00;99.90;;;;;;5000868;28;20301;-76
2021/01/05 12:49:21;;;;;;;42.53;23.42;;;4.10;99.90;;;;;;4990516;28;20726;-76
2021/01/05 12:51:50;;;;;;;42.28;22.88;;;4.10;99.90;;;;;;4996060;28;20194;-76
2021/01/05 12:54:26;;;;;;;45.88;24.98;;;4.00;99.90;;;;;;5002769;28;20210;-76
2021/01/05 12:56:55;;;;;;;41.00;23.50;;;4.20;99.90;;;;;;4994812;28;20218;-76
2021/01/05 12:59:24;;;;;;;44.50;23.95;;;4.00;99.90;;;;;;4975083;28;20214;-75
2021/01/05 13:02:01;;;;;;;44.03;22.15;;;3.80;99.90;;;;;;4991018;28;20289;-76
2021/01/05 13:04:28;;;;;;;49.03;23.65;;;3.70;99.90;;;;;;4992589;28;20270;-76
2021/01/05 13:06:56;;;;;;;40.42;22.35;;;3.80;99.90;;;;;;5007517;28;20292;-77
2021/01/05 13:09:26;;;;;;;40.53;23.30;;;3.80;99.90;;;;;;5007637;28;20182;-76
2021/01/05 13:11:53;;;;;;;41.13;22.23;;;3.90;99.90;;;;;;4998033;28;20675;-76